createdAt,value
2018-10-11T00:00:45.953Z,57.63
2018-10-11T00:03:16.382Z,57.53
2018-10-11T00:05:46.138Z,57.70
2018-10-11T00:08:15.811Z,57.31
2018-10-11T00:10:45.497Z,57.37
2018-10-11T00:13:15.223Z,57.38
2018-10-11T00:15:45.066Z,57.23
2018-10-11T00:18:14.586Z,57.26
2018-10-11T00:20:44.557Z,57.35
2018-10-11T00:23:14.969Z,57.44
2018-10-11T00:25:44.810Z,57.65
2018-10-11T00:28:14.914Z,57.46
2018-10-11T00:30:44.718Z,57.47
2018-10-11T00:33:14.430Z,57.58
2018-10-11T00:35:43.999Z,57.45
2018-10-11T00:38:14.259Z,57.78
2018-10-11T00:40:44.111Z,57.61
2018-10-11T00:43:13.982Z,57.24
2018-10-11T00:45:45.495Z,57.79
2018-10-11T00:48:15.095Z,57.48
2018-10-11T00:50:45.036Z,57.66
2018-10-11T00:53:14.686Z,57.53
2018-10-11T00:55:44.386Z,57.39
2018-10-11T00:58:14.146Z,57.58
2018-10-11T01:00:43.805Z,57.68
2018-10-11T01:03:13.574Z,57.34
2018-10-11T01:05:43.670Z,57.69
2018-10-11T01:08:13.346Z,57.83
2018-10-11T01:10:42.839Z,57.92
2018-10-11T01:13:12.343Z,57.67
2018-10-11T01:15:41.951Z,57.63
2018-10-11T01:18:11.911Z,57.44
2018-10-11T01:20:41.490Z,57.56
2018-10-11T01:23:10.999Z,57.94
2018-10-11T01:25:40.716Z,57.77
2018-10-11T01:28:10.996Z,57.78
2018-10-11T01:30:44.565Z,57.89
2018-10-11T01:33:14.674Z,57.59
2018-10-11T01:35:44.689Z,57.74
2018-10-11T01:38:14.390Z,57.62
2018-10-11T01:40:44.096Z,58.00
2018-10-11T01:43:13.810Z,57.77
2018-10-11T01:45:43.627Z,57.93
2018-10-11T01:48:13.489Z,57.86
2018-10-11T01:50:43.861Z,57.83
2018-10-11T01:53:13.767Z,58.01
2018-10-11T01:55:43.442Z,57.95
2018-10-11T01:58:13.103Z,57.78
2018-10-11T02:00:42.928Z,58.00
2018-10-11T02:03:12.520Z,57.90
2018-10-11T02:05:42.334Z,58.12
2018-10-11T02:08:12.367Z,57.87
2018-10-11T02:10:42.075Z,57.89
2018-10-11T02:13:11.679Z,57.77
2018-10-11T02:15:41.312Z,57.79
2018-10-11T02:18:11.346Z,58.27
2018-10-11T02:20:41.199Z,58.11
2018-10-11T02:23:10.822Z,57.97
2018-10-11T02:25:40.926Z,57.94
2018-10-11T02:28:11.399Z,57.97
2018-10-11T02:30:41.030Z,57.87
2018-10-11T02:33:10.669Z,57.90
2018-10-11T02:35:40.342Z,58.28
2018-10-11T02:38:09.990Z,58.05
2018-10-11T02:40:40.062Z,58.17
2018-10-11T02:43:09.847Z,58.33
2018-10-11T02:45:39.587Z,57.89
2018-10-11T02:48:09.458Z,58.00
2018-10-11T02:50:39.114Z,58.35
2018-10-11T02:53:08.802Z,57.92
2018-10-11T02:55:38.319Z,58.12
2018-10-11T02:58:18.783Z,58.00
2018-10-11T03:00:48.445Z,58.35
2018-10-11T03:03:23.335Z,58.15
2018-10-11T03:05:53.891Z,58.54
2018-10-11T03:08:25.878Z,58.17
2018-10-11T03:10:55.570Z,58.46
2018-10-11T03:13:25.069Z,58.10
2018-10-11T03:15:55.323Z,58.56
2018-10-11T03:18:24.952Z,58.29
2018-10-11T03:20:54.367Z,58.45
2018-10-11T03:23:24.435Z,58.49
2018-10-11T03:25:54.592Z,58.12
2018-10-11T03:28:24.714Z,58.07
2018-10-11T03:30:54.339Z,58.39
2018-10-11T03:33:24.529Z,58.29
2018-10-11T03:35:54.239Z,58.71
2018-10-11T03:38:23.973Z,58.16
2018-10-11T03:40:53.579Z,58.32
2018-10-11T03:43:23.491Z,58.12
2018-10-11T03:45:53.681Z,58.40
2018-10-11T03:48:23.322Z,58.43
2018-10-11T03:50:53.074Z,58.45
2018-10-11T03:53:23.258Z,58.49
2018-10-11T03:55:52.940Z,58.25
2018-10-11T03:58:22.378Z,58.26
2018-10-11T04:00:52.295Z,58.22
2018-10-11T04:03:22.002Z,58.38
2018-10-11T04:05:51.590Z,58.47
2018-10-11T04:08:21.434Z,58.47
2018-10-11T04:10:51.581Z,58.43
2018-10-11T04:13:21.350Z,58.77
2018-10-11T04:15:51.010Z,58.66
2018-10-11T04:18:21.253Z,58.66
2018-10-11T04:20:50.824Z,58.81
2018-10-11T04:23:29.217Z,58.68
2018-10-11T04:26:00.173Z,58.87
2018-10-11T04:28:30.298Z,58.69
2018-10-11T04:31:00.498Z,58.49
2018-10-11T04:33:30.170Z,58.94
2018-10-11T04:36:00.141Z,58.59
2018-10-11T04:38:29.990Z,58.81
2018-10-11T04:40:59.910Z,58.69
2018-10-11T04:43:29.641Z,58.77
2018-10-11T04:45:59.259Z,58.66
2018-10-11T04:48:28.914Z,58.68
2018-10-11T04:50:58.753Z,58.53
2018-10-11T04:53:28.664Z,58.64
2018-10-11T04:55:58.532Z,58.68
2018-10-11T04:58:28.166Z,58.94
2018-10-11T05:00:58.334Z,58.80
2018-10-11T05:03:27.973Z,58.68
2018-10-11T05:05:57.791Z,59.11
2018-10-11T05:08:27.513Z,58.93
2018-10-11T05:10:57.154Z,59.01
2018-10-11T05:13:38.041Z,59.30
2018-10-11T05:16:07.844Z,59.44
2018-10-11T05:18:38.850Z,59.25
2018-10-11T05:21:09.379Z,59.37
2018-10-11T05:23:39.953Z,59.18
2018-10-11T05:26:10.563Z,59.01
2018-10-11T05:28:40.063Z,59.02
2018-10-11T05:31:09.716Z,59.25
2018-10-11T05:33:40.619Z,59.02
2018-10-11T05:36:10.198Z,59.26
2018-10-11T05:38:39.995Z,59.25
2018-10-11T05:41:09.728Z,59.29
2018-10-11T05:43:39.662Z,59.21
2018-10-11T05:46:15.233Z,58.75
2018-10-11T05:48:45.809Z,59.00
2018-10-11T05:51:15.673Z,58.90
2018-10-11T05:53:45.339Z,59.06
2018-10-11T05:56:15.852Z,58.63
2018-10-11T05:58:46.394Z,58.68
2018-10-11T06:01:16.825Z,58.98
2018-10-11T06:03:46.671Z,58.77
2018-10-11T06:06:16.883Z,58.67
2018-10-11T06:08:46.723Z,58.86
2018-10-11T06:11:17.026Z,58.97
2018-10-11T06:13:47.654Z,59.04
2018-10-11T06:16:17.923Z,58.92
2018-10-11T06:18:48.032Z,58.94
2018-10-11T06:21:18.241Z,59.28
2018-10-11T06:23:48.030Z,58.79
2018-10-11T06:26:19.087Z,59.04
2018-10-11T06:28:49.034Z,59.28
2018-10-11T06:31:18.598Z,58.92
2018-10-11T06:33:48.439Z,59.26
2018-10-11T06:36:18.365Z,58.81
2018-10-11T06:38:47.792Z,58.99
2018-10-11T06:41:17.602Z,59.22
2018-10-11T06:43:47.230Z,58.98
2018-10-11T06:46:17.050Z,59.15
2018-10-11T06:48:47.070Z,59.11
2018-10-11T06:51:16.699Z,58.99
2018-10-11T06:53:46.649Z,58.82
2018-10-11T06:56:17.697Z,58.82
2018-10-11T06:58:47.267Z,58.90
2018-10-11T07:01:17.270Z,59.08
2018-10-11T07:03:46.972Z,59.08
2018-10-11T07:06:16.684Z,59.17
2018-10-11T07:08:46.653Z,59.12
2018-10-11T07:11:16.674Z,58.88
2018-10-11T07:13:46.722Z,58.75
2018-10-11T07:16:16.506Z,58.86
2018-10-11T07:18:46.356Z,58.68
2018-10-11T07:21:19.529Z,58.93
2018-10-11T07:24:00.946Z,58.40
2018-10-11T07:26:30.797Z,58.69
2018-10-11T07:29:00.513Z,58.63
2018-10-11T07:31:30.676Z,58.47
2018-10-11T07:34:00.266Z,58.11
2018-10-11T07:36:30.274Z,58.65
2018-10-11T07:39:00.160Z,58.42
2018-10-11T07:41:29.936Z,58.41
2018-10-11T07:44:00.453Z,58.27
2018-10-11T07:46:30.927Z,57.87
2018-10-11T07:49:00.517Z,57.94
2018-10-11T07:54:09.971Z,58.01
2018-10-11T07:56:39.481Z,58.05
2018-10-11T07:59:10.389Z,57.84
2018-10-11T08:01:40.540Z,57.54
2018-10-11T08:04:10.347Z,57.90
2018-10-11T08:06:40.403Z,57.84
2018-10-11T08:09:10.704Z,57.77
2018-10-11T08:11:40.876Z,57.51
2018-10-11T08:14:10.285Z,57.33
2018-10-11T08:16:41.622Z,57.36
2018-10-11T08:19:11.675Z,57.46
2018-10-11T08:21:41.584Z,57.00
2018-10-11T08:24:11.816Z,57.05
2018-10-11T08:26:41.461Z,57.27
2018-10-11T08:29:11.466Z,57.13
2018-10-11T08:31:41.555Z,57.00
2018-10-11T08:34:11.784Z,57.21
2018-10-11T08:36:42.194Z,56.84
2018-10-11T08:39:13.122Z,56.88
2018-10-11T08:41:43.200Z,56.78
2018-10-11T08:44:14.224Z,56.83
2018-10-11T08:46:44.269Z,57.10
2018-10-11T08:49:14.000Z,56.61
2018-10-11T08:51:43.590Z,56.77
2018-10-11T08:54:18.976Z,56.85
2018-10-11T08:56:48.576Z,56.48
2018-10-11T08:59:18.310Z,56.36
2018-10-11T09:01:48.135Z,56.60
2018-10-11T09:04:18.447Z,56.43
2018-10-11T09:06:48.492Z,56.36
2018-10-11T09:09:18.484Z,56.19
2018-10-11T09:11:48.034Z,56.28
2018-10-11T09:14:17.574Z,56.43
2018-10-11T09:16:48.171Z,56.21
2018-10-11T09:19:17.904Z,56.28
2018-10-11T09:21:48.181Z,56.12
2018-10-11T09:24:18.167Z,56.03
2018-10-11T09:26:47.778Z,55.84
2018-10-11T09:29:17.555Z,56.17
2018-10-11T09:31:48.249Z,55.86
2018-10-11T09:34:18.066Z,55.89
2018-10-11T09:36:47.643Z,55.99
2018-10-11T09:39:17.694Z,55.88
2018-10-11T09:41:47.247Z,55.59
2018-10-11T09:44:16.951Z,55.83
2018-10-11T09:46:47.013Z,55.54
2018-10-11T09:49:17.023Z,55.91
2018-10-11T09:51:46.787Z,55.50
2018-10-11T09:54:16.769Z,55.71
2018-10-11T09:57:23.155Z,55.53
2018-10-11T09:59:53.182Z,55.71
2018-10-11T10:02:24.059Z,55.40
2018-10-11T10:04:56.248Z,55.45
2018-10-11T10:07:25.806Z,55.39
2018-10-11T10:09:55.849Z,55.11
2018-10-11T10:12:25.386Z,55.50
2018-10-11T10:14:55.066Z,55.48
2018-10-11T10:17:26.738Z,55.18
2018-10-11T10:19:56.738Z,55.20
2018-10-11T10:22:27.068Z,54.93
2018-10-11T10:24:56.832Z,55.19
2018-10-11T10:27:28.422Z,54.84
2018-10-11T10:29:58.201Z,55.16
2018-10-11T10:32:28.157Z,55.14
2018-10-11T10:34:57.890Z,55.17
2018-10-11T10:37:27.693Z,55.11
2018-10-11T10:39:57.729Z,54.90
2018-10-11T10:42:27.816Z,54.93
2018-10-11T10:44:57.732Z,55.06
2018-10-11T10:47:27.210Z,54.70
2018-10-11T10:49:57.205Z,54.80
2018-10-11T10:52:28.048Z,54.97
2018-10-11T10:54:59.458Z,54.60
2018-10-11T10:57:30.440Z,54.45
2018-10-11T11:00:00.170Z,54.82
2018-10-11T11:02:29.989Z,54.49
2018-10-11T11:04:59.666Z,54.78
2018-10-11T11:07:29.625Z,54.43
2018-10-11T11:09:59.615Z,54.47
2018-10-11T11:12:29.342Z,54.56
2018-10-11T11:14:59.192Z,54.72
2018-10-11T11:17:30.211Z,54.31
2018-10-11T11:20:00.512Z,54.28
2018-10-11T11:22:30.299Z,54.49
2018-10-11T11:25:00.691Z,54.44
2018-10-11T11:27:30.543Z,54.29
2018-10-11T11:30:00.479Z,54.25
2018-10-11T11:32:30.104Z,54.48
2018-10-11T11:35:00.185Z,54.14
2018-10-11T11:37:29.822Z,54.27
2018-10-11T11:40:00.374Z,54.41
2018-10-11T11:42:31.418Z,54.29
2018-10-11T11:45:01.259Z,54.04
2018-10-11T11:47:30.845Z,53.87
2018-10-11T11:50:00.430Z,54.03
2018-10-11T11:52:30.064Z,54.18
2018-10-11T11:54:59.773Z,53.79
2018-10-11T11:57:29.777Z,54.06
2018-10-11T11:59:59.938Z,53.83
2018-10-11T12:02:29.657Z,54.04
2018-10-11T12:04:59.288Z,54.11
2018-10-11T12:07:29.247Z,53.68
2018-10-11T12:09:58.938Z,53.84
2018-10-11T12:13:06.962Z,53.84
2018-10-11T12:15:37.449Z,53.76
2018-10-11T12:18:08.539Z,53.56
2018-10-11T12:20:40.617Z,53.56
2018-10-11T12:23:11.544Z,53.78
2018-10-11T12:25:42.138Z,53.51
2018-10-11T12:28:12.077Z,53.40
2018-10-11T12:30:42.985Z,53.58
2018-10-11T12:33:13.513Z,53.02
2018-10-11T12:35:43.132Z,53.45
2018-10-11T12:38:12.892Z,53.63
2018-10-11T12:40:42.734Z,53.37
2018-10-11T12:43:12.202Z,53.25
2018-10-11T12:45:43.071Z,53.32
2018-10-11T12:48:13.302Z,53.31
2018-10-11T12:50:43.367Z,53.48
2018-10-11T12:53:12.882Z,53.26
2018-10-11T12:55:42.379Z,53.28
2018-10-11T12:58:12.350Z,53.36
2018-10-11T13:00:42.090Z,53.20
2018-10-11T13:03:12.551Z,53.45
2018-10-11T13:05:42.172Z,53.34
2018-10-11T13:08:12.273Z,53.26
2018-10-11T13:10:41.964Z,53.45
2018-10-11T13:13:14.809Z,53.48
2018-10-11T13:15:44.696Z,53.28
2018-10-11T13:18:14.533Z,53.37
2018-10-11T13:20:44.790Z,53.44
2018-10-11T13:23:17.928Z,53.05
2018-10-11T13:25:44.455Z,53.21
2018-10-11T13:28:14.220Z,53.29
2018-10-11T13:30:44.336Z,53.29
2018-10-11T13:33:14.034Z,53.16
2018-10-11T13:35:44.085Z,53.14
2018-10-11T13:38:14.226Z,53.31
2018-10-11T13:40:44.149Z,53.20
2018-10-11T13:43:14.105Z,53.15
2018-10-11T13:45:44.087Z,52.93
2018-10-11T13:48:14.726Z,53.40
2018-10-11T13:50:46.185Z,53.17
2018-10-11T13:53:19.457Z,53.22
2018-10-11T13:55:50.831Z,53.07
2018-10-11T13:58:16.919Z,53.32
2018-10-11T14:00:46.456Z,53.46
2018-10-11T14:03:16.364Z,53.09
2018-10-11T14:05:50.673Z,53.08
2018-10-11T14:08:41.484Z,52.89
2018-10-11T14:11:14.099Z,53.16
2018-10-11T14:13:45.013Z,52.85
2018-10-11T14:16:14.806Z,53.18
2018-10-11T14:18:44.816Z,53.43
2018-10-11T14:21:15.174Z,53.25
2018-10-11T14:23:45.002Z,53.10
2018-10-11T14:26:14.445Z,53.12
2018-10-11T14:28:45.164Z,53.67
2018-10-11T14:31:15.958Z,54.31
2018-10-11T14:33:45.354Z,54.53
2018-10-11T14:36:15.281Z,54.83
2018-10-11T14:38:45.615Z,55.00
2018-10-11T14:41:15.393Z,55.08
2018-10-11T14:43:45.762Z,55.53
2018-10-11T14:46:15.916Z,55.84
2018-10-11T14:48:46.832Z,55.98
2018-10-11T14:51:16.874Z,56.17
2018-10-11T14:53:50.458Z,56.24
2018-10-11T14:56:18.006Z,56.51
2018-10-11T14:59:19.198Z,56.70
2018-10-11T15:01:49.710Z,56.92
2018-10-11T15:04:22.608Z,56.50
2018-10-11T15:06:54.724Z,56.77
2018-10-11T15:09:25.272Z,56.56
2018-10-11T15:11:55.418Z,56.27
2018-10-11T15:14:25.421Z,56.28
2018-10-11T15:16:56.034Z,56.38
2018-10-11T15:19:25.901Z,56.55
2018-10-11T15:21:56.481Z,56.33
2018-10-11T15:24:30.545Z,56.03
2018-10-11T15:27:02.760Z,56.09
2018-10-11T15:29:33.261Z,56.09
2018-10-11T15:32:03.034Z,56.48
2018-10-11T15:34:32.912Z,56.23
2018-10-11T15:37:03.184Z,56.60
2018-10-11T15:39:33.309Z,56.62
2018-10-11T15:42:03.414Z,56.78
2018-10-11T15:44:33.235Z,57.05
2018-10-11T15:47:03.455Z,56.92
2018-10-11T15:49:33.272Z,57.26
2018-10-11T15:52:02.817Z,57.56
2018-10-11T15:54:33.156Z,57.49
2018-10-11T15:57:03.690Z,57.60
2018-10-11T15:59:34.110Z,57.61
2018-10-11T16:02:04.184Z,57.85
2018-10-11T16:04:33.793Z,58.23
2018-10-11T16:07:04.125Z,58.41
2018-10-11T16:09:33.739Z,58.53
2018-10-11T16:12:03.216Z,58.82
2018-10-11T16:14:34.077Z,58.88
2018-10-11T16:17:04.190Z,58.62
2018-10-11T16:19:34.410Z,59.10
2018-10-11T16:22:03.840Z,58.62
2018-10-11T16:24:33.539Z,58.70
2018-10-11T16:27:03.424Z,58.69
2018-10-11T16:29:33.871Z,58.87
2018-10-11T16:32:03.244Z,59.20
2018-10-11T16:34:33.106Z,59.04
2018-10-11T16:37:02.788Z,59.04
2018-10-11T16:39:32.586Z,59.10
2018-10-11T16:42:02.490Z,59.25
2018-10-11T16:44:34.466Z,59.35
2018-10-11T16:47:07.490Z,59.31
2018-10-11T16:49:37.511Z,59.34
2018-10-11T16:52:08.087Z,59.44
2018-10-11T16:54:42.621Z,59.47
2018-10-11T16:57:14.439Z,59.38
2018-10-11T16:59:45.066Z,59.55
2018-10-11T17:02:15.157Z,59.13
2018-10-11T17:04:46.074Z,59.54
2018-10-11T17:07:16.966Z,59.06
2018-10-11T17:09:48.616Z,59.32
2018-10-11T17:12:19.798Z,59.02
2018-10-11T17:14:50.571Z,59.18
2018-10-11T17:17:20.415Z,59.33
2018-10-11T17:19:52.167Z,59.23
2018-10-11T17:22:21.856Z,58.71
2018-10-11T17:24:51.875Z,59.12
2018-10-11T17:27:21.654Z,58.66
2018-10-11T17:29:53.430Z,58.71
2018-10-11T17:32:23.709Z,58.97
2018-10-11T17:34:54.536Z,58.65
2018-10-11T17:37:24.445Z,58.71
2018-10-11T17:39:54.335Z,58.57
2018-10-11T17:42:24.076Z,58.84
2018-10-11T17:44:54.175Z,58.57
2018-10-11T17:47:26.182Z,59.01
2018-10-11T17:49:57.772Z,58.60
2018-10-11T17:52:29.877Z,58.82
2018-10-11T17:55:00.575Z,58.49
2018-10-11T17:57:31.167Z,58.41
2018-10-11T18:00:02.413Z,58.51
2018-10-11T18:02:32.345Z,58.46
2018-10-11T18:05:02.390Z,58.37
2018-10-11T18:07:35.062Z,58.27
2018-10-11T18:10:07.112Z,58.26
2018-10-11T18:12:37.178Z,58.14
2018-10-11T18:15:11.326Z,58.49
2018-10-11T18:17:41.208Z,58.27
2018-10-11T18:20:11.791Z,57.95
2018-10-11T18:22:41.970Z,58.24
2018-10-11T18:25:12.204Z,57.97
2018-10-11T18:27:42.217Z,58.32
2018-10-11T18:30:12.858Z,58.03
2018-10-11T18:32:42.939Z,58.12
2018-10-11T18:35:12.574Z,57.76
2018-10-11T18:37:43.268Z,57.76
2018-10-11T18:40:13.255Z,57.73
2018-10-11T18:42:43.309Z,57.90
2018-10-11T18:45:14.334Z,57.72
2018-10-11T18:47:44.622Z,57.58
2018-10-11T18:50:14.478Z,58.05
2018-10-11T18:52:44.746Z,57.81
2018-10-11T18:55:15.161Z,57.86
2018-10-11T18:57:46.431Z,57.88
2018-10-11T19:00:17.081Z,57.70
2018-10-11T19:02:47.394Z,57.93
2018-10-11T19:05:17.590Z,57.73
2018-10-11T19:07:47.866Z,57.79
2018-10-11T19:10:18.095Z,57.91
2018-10-11T19:12:48.087Z,57.94
2018-10-11T19:15:18.873Z,57.88
2018-10-11T19:17:48.583Z,57.74
2018-10-11T19:20:18.602Z,57.91
2018-10-11T19:22:49.696Z,57.92
2018-10-11T19:25:21.327Z,57.62
2018-10-11T19:27:50.965Z,57.57
2018-10-11T19:30:21.169Z,57.77
2018-10-11T19:32:52.674Z,57.59
2018-10-11T19:35:22.708Z,57.80
2018-10-11T19:37:52.771Z,57.65
2018-10-11T19:40:22.493Z,57.62
2018-10-11T19:42:52.542Z,57.70
2018-10-11T19:45:22.433Z,57.56
2018-10-11T19:47:52.303Z,57.79
2018-10-11T19:50:21.854Z,57.78
2018-10-11T19:52:51.865Z,57.82
2018-10-11T19:55:21.998Z,57.43
2018-10-11T19:57:51.971Z,57.55
2018-10-11T20:00:22.121Z,57.89
2018-10-11T20:02:52.082Z,57.70
2018-10-11T20:05:23.096Z,57.67
2018-10-11T20:07:53.268Z,57.72
2018-10-11T20:10:23.445Z,57.54
2018-10-11T20:12:55.862Z,57.78
2018-10-11T20:15:25.640Z,57.54
2018-10-11T20:17:55.346Z,57.61
2018-10-11T20:20:25.092Z,57.34
2018-10-11T20:22:55.195Z,57.64
2018-10-11T20:25:24.859Z,57.49
2018-10-11T20:27:55.118Z,57.33
2018-10-11T20:30:25.268Z,57.56
2018-10-11T20:32:55.118Z,57.45
2018-10-11T20:35:24.631Z,57.52
2018-10-11T20:37:56.346Z,57.80
2018-10-11T20:40:26.450Z,57.55
2018-10-11T20:42:56.582Z,57.68
2018-10-11T20:45:26.255Z,57.85
2018-10-11T20:47:56.859Z,57.39
2018-10-11T20:50:28.282Z,57.61
2018-10-11T20:52:58.193Z,58.02
2018-10-11T20:55:28.513Z,58.10
2018-10-11T20:57:58.535Z,58.29
2018-10-11T21:00:32.639Z,58.59
2018-10-11T21:03:02.514Z,58.70
2018-10-11T21:05:32.191Z,58.83
2018-10-11T21:08:02.646Z,59.02
2018-10-11T21:10:33.082Z,59.27
2018-10-11T21:13:03.350Z,58.94
2018-10-11T21:15:32.744Z,59.23
2018-10-11T21:18:02.310Z,59.42
2018-10-11T21:20:32.261Z,59.32
2018-10-11T21:23:02.190Z,59.57
2018-10-11T21:25:32.052Z,59.57
2018-10-11T21:28:03.366Z,59.53
2018-10-11T21:30:33.635Z,59.61
2018-10-11T21:33:03.916Z,59.71
2018-10-11T21:35:33.777Z,59.39
2018-10-11T21:38:03.743Z,59.67
2018-10-11T21:40:33.670Z,59.86
2018-10-11T21:43:03.680Z,59.73
2018-10-11T21:45:33.634Z,59.83
2018-10-11T21:48:03.432Z,59.69
2018-10-11T21:50:33.021Z,59.50
2018-10-11T21:53:03.004Z,59.50
2018-10-11T21:55:32.402Z,59.90
2018-10-11T21:58:01.743Z,59.96
2018-10-11T22:00:37.076Z,60.00
2018-10-11T22:03:07.291Z,60.10
2018-10-11T22:05:37.066Z,59.89
2018-10-11T22:08:06.501Z,59.89
2018-10-11T22:10:36.187Z,60.01
2018-10-11T22:13:06.165Z,60.05
2018-10-11T22:15:36.474Z,59.93
2018-10-11T22:18:06.671Z,59.98
2018-10-11T22:20:36.027Z,59.84
2018-10-11T22:23:05.835Z,59.83
2018-10-11T22:25:35.716Z,60.07
2018-10-11T22:28:05.522Z,60.02
2018-10-11T22:30:35.471Z,60.01
2018-10-11T22:33:05.078Z,59.75
2018-10-11T22:35:35.198Z,59.87
2018-10-11T22:38:04.822Z,59.80
2018-10-11T22:40:36.766Z,59.97
2018-10-11T22:43:06.772Z,60.17
2018-10-11T22:45:36.482Z,60.33
2018-10-11T22:48:06.304Z,60.04
2018-10-11T22:50:36.834Z,60.11
2018-10-11T22:53:07.916Z,60.15
2018-10-11T22:55:37.853Z,60.01
2018-10-11T22:58:07.658Z,59.90
2018-10-11T23:00:37.057Z,59.97
2018-10-11T23:03:06.458Z,59.84
2018-10-11T23:05:35.830Z,60.21
2018-10-11T23:08:05.234Z,59.84
2018-10-11T23:10:34.922Z,59.75
2018-10-11T23:13:04.302Z,60.10
2018-10-11T23:15:33.657Z,59.84
2018-10-11T23:18:03.474Z,60.00
2018-10-11T23:20:32.845Z,59.92
2018-10-11T23:23:02.382Z,59.89
2018-10-11T23:25:31.762Z,59.79
2018-10-11T23:28:02.100Z,59.83
2018-10-11T23:30:31.470Z,59.84
2018-10-11T23:33:00.915Z,60.05
2018-10-11T23:35:30.281Z,59.80
2018-10-11T23:37:59.663Z,60.20
2018-10-11T23:40:29.760Z,59.76
2018-10-11T23:42:59.805Z,60.07
2018-10-11T23:45:29.342Z,59.90
2018-10-11T23:47:59.259Z,59.96
2018-10-11T23:50:29.062Z,59.80
2018-10-11T23:52:59.090Z,60.03
2018-10-11T23:55:30.410Z,59.93
2018-10-11T23:58:00.395Z,60.25
